BAW20R KORD-EGLL
Flight info
| Callsign | BAW20R |
|---|---|
| Flight time | N/A |
| Altitude | 35000 |
| Route | EBAKE DCT WISMO DCT POSTS DCT PADDE DCT SVM DCT TWIGS DCT KITOK DCT PEPLA DCT PEVNI DCT MATOR DCT VIGRO DCT BAREE N815B IRLOK/M083F360 DCT 5630N05000W 5730N04000W 5730N03000W 5630N02000W DCT ETARI DCT MOGLO/N0475F370 DCT GMN DCT LIFFY UL975 MALUD Q38 NUGRA |
| Aircraft | B77W/H-SDE1E2E3FGHIJ2J3J4J5M1RWXY/LB1D1 |
Departure
| Time | 2026-05-01 12:30 |
|---|---|
| Airport | Chicago O'Hare International Airport (KORD) |
Arrival
| Time | N/A |
|---|---|
| Airport | London Heathrow Airport (EGLL) |
| Time | Latitude | Longitude | Altitude | Speed | Heading |
|---|---|---|---|---|---|
| 2026-05-01 11:38 | 41.97345 | -87.89084 | 674 ft | 0 kts | 359° |
| 2026-05-01 12:04 | 41.97342 | -87.89084 | 655 ft | 3 kts | 359° |
| 2026-05-01 12:05 | 41.97316 | -87.89085 | 672 ft | 4 kts | 5° |
| 2026-05-01 12:05 | 41.97279 | -87.89074 | 672 ft | 4 kts | 310° |
| 2026-05-01 12:05 | 41.97270 | -87.89050 | 673 ft | 4 kts | 275° |
| 2026-05-01 12:06 | 41.97270 | -87.89015 | 673 ft | 3 kts | 269° |
| 2026-05-01 12:06 | 41.97270 | -87.89009 | 672 ft | 0 kts | 270° |
| 2026-05-01 12:16 | 41.97269 | -87.89053 | 674 ft | 6 kts | 266° |
| 2026-05-01 12:16 | 41.97246 | -87.89096 | 674 ft | 6 kts | 200° |
| 2026-05-01 12:16 | 41.97210 | -87.89114 | 674 ft | 6 kts | 219° |
| 2026-05-01 12:16 | 41.97195 | -87.89163 | 674 ft | 6 kts | 265° |
| 2026-05-01 12:17 | 41.97194 | -87.89226 | 674 ft | 9 kts | 269° |
| 2026-05-01 12:17 | 41.97194 | -87.89315 | 674 ft | 9 kts | 270° |
| 2026-05-01 12:17 | 41.97200 | -87.89401 | 674 ft | 9 kts | 292° |
| 2026-05-01 12:17 | 41.97259 | -87.89432 | 674 ft | 10 kts | 0° |
| 2026-05-01 12:18 | 41.97326 | -87.89430 | 674 ft | 10 kts | 360° |
| 2026-05-01 12:18 | 41.97414 | -87.89431 | 674 ft | 14 kts | 360° |
| 2026-05-01 12:18 | 41.97508 | -87.89431 | 674 ft | 14 kts | 360° |
| 2026-05-01 12:18 | 41.97603 | -87.89432 | 674 ft | 14 kts | 360° |
| 2026-05-01 12:19 | 41.97696 | -87.89433 | 674 ft | 14 kts | 359° |
| 2026-05-01 12:19 | 41.97791 | -87.89433 | 674 ft | 14 kts | 359° |
| 2026-05-01 12:19 | 41.97878 | -87.89428 | 672 ft | 11 kts | 13° |
| 2026-05-01 12:19 | 41.97937 | -87.89369 | 674 ft | 11 kts | 49° |
| 2026-05-01 12:20 | 41.97986 | -87.89292 | 674 ft | 11 kts | 49° |
| 2026-05-01 12:20 | 41.98036 | -87.89214 | 674 ft | 12 kts | 50° |
| 2026-05-01 12:20 | 41.98095 | -87.89118 | 674 ft | 14 kts | 51° |
| 2026-05-01 12:20 | 41.98156 | -87.89019 | 674 ft | 14 kts | 50° |
| 2026-05-01 12:21 | 41.98227 | -87.88935 | 674 ft | 14 kts | 26° |
| 2026-05-01 12:21 | 41.98320 | -87.88920 | 673 ft | 14 kts | 358° |
| 2026-05-01 12:21 | 41.98415 | -87.88921 | 671 ft | 14 kts | 0° |
| 2026-05-01 12:21 | 41.98511 | -87.88921 | 673 ft | 14 kts | 353° |
| 2026-05-01 12:22 | 41.98575 | -87.88997 | 674 ft | 11 kts | 305° |
| 2026-05-01 12:22 | 41.98617 | -87.89040 | 674 ft | 11 kts | 331° |
| 2026-05-01 12:22 | 41.98684 | -87.89114 | 674 ft | 11 kts | 270° |
| 2026-05-01 12:22 | 41.98683 | -87.89269 | 674 ft | 20 kts | 268° |
| 2026-05-01 12:23 | 41.98681 | -87.89455 | 674 ft | 20 kts | 269° |
| 2026-05-01 12:23 | 41.98678 | -87.89644 | 674 ft | 20 kts | 269° |
| 2026-05-01 12:23 | 41.98678 | -87.89832 | 674 ft | 20 kts | 270° |
| 2026-05-01 12:23 | 41.98678 | -87.90020 | 674 ft | 20 kts | 270° |
| 2026-05-01 12:24 | 41.98679 | -87.90209 | 674 ft | 20 kts | 270° |
| 2026-05-01 12:24 | 41.98679 | -87.90396 | 674 ft | 20 kts | 270° |
| 2026-05-01 12:24 | 41.98679 | -87.90584 | 674 ft | 20 kts | 269° |
| 2026-05-01 12:24 | 41.98677 | -87.90773 | 674 ft | 20 kts | 268° |
| 2026-05-01 12:25 | 41.98677 | -87.90962 | 674 ft | 20 kts | 270° |
| 2026-05-01 12:25 | 41.98678 | -87.91337 | 674 ft | 20 kts | 271° |
| 2026-05-01 12:25 | 41.98683 | -87.91526 | 674 ft | 20 kts | 267° |
| 2026-05-01 12:26 | 41.98677 | -87.91707 | 674 ft | 20 kts | 268° |
| 2026-05-01 12:26 | 41.98678 | -87.92084 | 674 ft | 20 kts | 270° |
| 2026-05-01 12:26 | 41.98678 | -87.92209 | 674 ft | 20 kts | 270° |
| 2026-05-01 12:27 | 41.98677 | -87.92397 | 674 ft | 20 kts | 270° |
| 2026-05-01 12:27 | 41.98677 | -87.92775 | 674 ft | 20 kts | 271° |
| 2026-05-01 12:28 | 41.98692 | -87.93004 | 674 ft | 8 kts | 318° |
| 2026-05-01 12:28 | 41.98749 | -87.93016 | 674 ft | 8 kts | 1° |
| 2026-05-01 12:28 | 41.98831 | -87.92949 | 673 ft | 5 kts | 84° |
| 2026-05-01 12:29 | 41.98831 | -87.92935 | 674 ft | 0 kts | 90° |
| 2026-05-01 12:29 | 41.98831 | -87.92918 | 674 ft | 12 kts | 89° |
| 2026-05-01 12:29 | 41.98831 | -87.91305 | 672 ft | 157 kts | 90° |
| 2026-05-01 12:30 | 41.98842 | -87.87869 | 1594 ft | 186 kts | 86° |
| 2026-05-01 12:30 | 41.98863 | -87.86107 | 2226 ft | 193 kts | 87° |
| 2026-05-01 12:30 | 41.98844 | -87.84208 | 2501 ft | 213 kts | 89° |
| 2026-05-01 12:31 | 41.98863 | -87.82173 | 2901 ft | 219 kts | 76° |
| 2026-05-01 12:31 | 41.99335 | -87.80242 | 3383 ft | 224 kts | 65° |
| 2026-05-01 12:31 | 41.99914 | -87.78216 | 3773 ft | 239 kts | 66° |
| 2026-05-01 12:31 | 42.00648 | -87.76141 | 4064 ft | 250 kts | 52° |
| 2026-05-01 12:32 | 42.01739 | -87.74277 | 4711 ft | 256 kts | 47° |
| 2026-05-01 12:32 | 42.04092 | -87.70618 | 6142 ft | 264 kts | 46° |
| 2026-05-01 12:32 | 42.05300 | -87.68737 | 6867 ft | 266 kts | 47° |
| 2026-05-01 12:33 | 42.06321 | -87.66599 | 7429 ft | 276 kts | 59° |
| 2026-05-01 12:33 | 42.07163 | -87.64262 | 8128 ft | 279 kts | 62° |
| 2026-05-01 12:33 | 42.07984 | -87.61867 | 8834 ft | 283 kts | 62° |
| 2026-05-01 12:33 | 42.08808 | -87.59476 | 9519 ft | 286 kts | 62° |
| 2026-05-01 12:34 | 42.09660 | -87.57037 | 10171 ft | 290 kts | 61° |
| 2026-05-01 12:34 | 42.10551 | -87.54522 | 10525 ft | 307 kts | 61° |
| 2026-05-01 12:34 | 42.11515 | -87.51832 | 10701 ft | 329 kts | 61° |
| 2026-05-01 12:34 | 42.12551 | -87.48958 | 10896 ft | 352 kts | 61° |
| 2026-05-01 12:35 | 42.13642 | -87.45938 | 11227 ft | 369 kts | 61° |
| 2026-05-01 12:35 | 42.14785 | -87.42770 | 11855 ft | 379 kts | 61° |
| 2026-05-01 12:35 | 42.15948 | -87.39546 | 12655 ft | 386 kts | 61° |
| 2026-05-01 12:35 | 42.17133 | -87.36261 | 13554 ft | 391 kts | 61° |
| 2026-05-01 12:36 | 42.18331 | -87.32939 | 14364 ft | 396 kts | 61° |
| 2026-05-01 12:36 | 42.19533 | -87.29608 | 15096 ft | 402 kts | 61° |
| 2026-05-01 12:36 | 42.20770 | -87.26176 | 15834 ft | 408 kts | 61° |
| 2026-05-01 12:36 | 42.22026 | -87.22687 | 16588 ft | 414 kts | 61° |
| 2026-05-01 12:37 | 42.23277 | -87.19207 | 17315 ft | 420 kts | 61° |
| 2026-05-01 12:37 | 42.24567 | -87.15614 | 18057 ft | 426 kts | 61° |
| 2026-05-01 12:37 | 42.25867 | -87.11989 | 18729 ft | 432 kts | 61° |
| 2026-05-01 12:37 | 42.27032 | -87.08218 | 19384 ft | 439 kts | 69° |
| 2026-05-01 12:38 | 42.27817 | -87.04246 | 20063 ft | 445 kts | 76° |
| 2026-05-01 12:38 | 42.28264 | -87.00082 | 20713 ft | 451 kts | 84° |
| 2026-05-01 12:38 | 42.28450 | -86.95820 | 21340 ft | 456 kts | 85° |
| 2026-05-01 12:38 | 42.28599 | -86.91503 | 21962 ft | 461 kts | 85° |
| 2026-05-01 12:39 | 42.28743 | -86.87150 | 22577 ft | 466 kts | 85° |
| 2026-05-01 12:39 | 42.28892 | -86.82821 | 23180 ft | 470 kts | 85° |
| 2026-05-01 12:39 | 42.29053 | -86.78390 | 23760 ft | 474 kts | 85° |
| 2026-05-01 12:39 | 42.29223 | -86.73918 | 24209 ft | 479 kts | 85° |
| 2026-05-01 12:40 | 42.29400 | -86.69388 | 24652 ft | 484 kts | 85° |
| 2026-05-01 12:40 | 42.29580 | -86.64822 | 25094 ft | 489 kts | 85° |
| 2026-05-01 12:40 | 42.29759 | -86.60218 | 25527 ft | 494 kts | 85° |
| 2026-05-01 12:40 | 42.29939 | -86.55556 | 25956 ft | 498 kts | 85° |
| 2026-05-01 12:41 | 42.30116 | -86.50898 | 26383 ft | 503 kts | 86° |
| 2026-05-01 12:41 | 42.30294 | -86.46151 | 26796 ft | 507 kts | 86° |
| 2026-05-01 12:41 | 42.30471 | -86.41377 | 27199 ft | 511 kts | 86° |
| 2026-05-01 12:41 | 42.30647 | -86.36557 | 27587 ft | 516 kts | 86° |
| 2026-05-01 12:42 | 42.30824 | -86.31678 | 27992 ft | 520 kts | 86° |
| 2026-05-01 12:42 | 42.30997 | -86.26825 | 28354 ft | 524 kts | 86° |
| 2026-05-01 12:42 | 42.31173 | -86.21853 | 28706 ft | 528 kts | 86° |
| 2026-05-01 12:42 | 42.31345 | -86.16945 | 29039 ft | 532 kts | 86° |
| 2026-05-01 12:43 | 42.31518 | -86.11941 | 29404 ft | 535 kts | 86° |
| 2026-05-01 12:43 | 42.31622 | -86.06910 | 29849 ft | 535 kts | 90° |
| 2026-05-01 12:43 | 42.31592 | -86.01860 | 30302 ft | 536 kts | 90° |
| 2026-05-01 12:43 | 42.31522 | -85.96813 | 30691 ft | 536 kts | 91° |
| 2026-05-01 12:44 | 42.31438 | -85.91762 | 31052 ft | 537 kts | 91° |
| 2026-05-01 12:44 | 42.31355 | -85.86777 | 31403 ft | 537 kts | 91° |
| 2026-05-01 12:44 | 42.31203 | -85.76642 | 32107 ft | 538 kts | 91° |
| 2026-05-01 12:45 | 42.31065 | -85.66551 | 32794 ft | 539 kts | 91° |
| 2026-05-01 12:45 | 42.30994 | -85.61469 | 33131 ft | 540 kts | 91° |
| 2026-05-01 12:45 | 42.30920 | -85.56404 | 33457 ft | 540 kts | 91° |
| 2026-05-01 12:46 | 42.30845 | -85.51379 | 33782 ft | 540 kts | 91° |
| 2026-05-01 12:46 | 42.30765 | -85.46277 | 34084 ft | 541 kts | 91° |
| 2026-05-01 12:46 | 42.30683 | -85.41200 | 34342 ft | 541 kts | 91° |
| 2026-05-01 12:46 | 42.30598 | -85.36113 | 34605 ft | 541 kts | 91° |
| 2026-05-01 12:47 | 42.30511 | -85.31013 | 34869 ft | 541 kts | 91° |
| 2026-05-01 12:47 | 42.30423 | -85.25972 | 34964 ft | 545 kts | 91° |
| 2026-05-01 12:47 | 42.30236 | -85.15688 | 35021 ft | 546 kts | 91° |
| 2026-05-01 12:48 | 42.30044 | -85.05493 | 35010 ft | 540 kts | 91° |
| 2026-05-01 12:48 | 42.29828 | -84.95393 | 35017 ft | 538 kts | 92° |
| 2026-05-01 12:49 | 42.29581 | -84.85269 | 35020 ft | 538 kts | 92° |
| 2026-05-01 12:49 | 42.29329 | -84.75210 | 35024 ft | 539 kts | 92° |
| 2026-05-01 12:50 | 42.29070 | -84.65051 | 35014 ft | 540 kts | 92° |
| 2026-05-01 12:50 | 42.28804 | -84.54866 | 35014 ft | 542 kts | 92° |
| 2026-05-01 12:51 | 42.28977 | -84.44752 | 35015 ft | 543 kts | 83° |
| 2026-05-01 12:52 | 42.31063 | -84.29690 | 35016 ft | 543 kts | 77° |
| 2026-05-01 12:52 | 42.33262 | -84.14693 | 35013 ft | 543 kts | 78° |
| 2026-05-01 12:53 | 42.35360 | -83.99676 | 35014 ft | 542 kts | 78° |
| 2026-05-01 12:54 | 42.36752 | -83.89638 | 35013 ft | 542 kts | 78° |
| 2026-05-01 12:54 | 42.38821 | -83.74647 | 35007 ft | 541 kts | 78° |
| 2026-05-01 12:55 | 42.41276 | -83.59815 | 35000 ft | 538 kts | 69° |
| 2026-05-01 12:56 | 42.44212 | -83.50529 | 35004 ft | 533 kts | 59° |
| 2026-05-01 12:56 | 42.47711 | -83.41712 | 35014 ft | 533 kts | 58° |
| 2026-05-01 12:57 | 42.51219 | -83.32865 | 35004 ft | 533 kts | 59° |
| 2026-05-01 12:57 | 42.56398 | -83.19524 | 35011 ft | 534 kts | 59° |
| 2026-05-01 12:58 | 42.59825 | -83.10615 | 34997 ft | 534 kts | 59° |
| 2026-05-01 12:59 | 42.64982 | -82.97174 | 34980 ft | 534 kts | 59° |
| 2026-05-01 12:59 | 42.70107 | -82.83761 | 34984 ft | 534 kts | 59° |
| 2026-05-01 13:00 | 42.75245 | -82.70250 | 34987 ft | 534 kts | 60° |
| 2026-05-01 13:01 | 42.80336 | -82.56801 | 35022 ft | 533 kts | 60° |
| 2026-05-01 13:02 | 42.85396 | -82.43343 | 35021 ft | 532 kts | 60° |
| 2026-05-01 13:07 | 43.23382 | -81.45341 | 35013 ft | 530 kts | 58° |
| 2026-05-01 13:08 | 43.26924 | -81.36498 | 35012 ft | 530 kts | 58° |
| 2026-05-01 13:08 | 43.30460 | -81.27651 | 35010 ft | 530 kts | 59° |
| 2026-05-01 13:09 | 43.33999 | -81.18769 | 35012 ft | 530 kts | 59° |
| 2026-05-01 13:09 | 43.37543 | -81.09848 | 35015 ft | 530 kts | 59° |
| 2026-05-01 13:10 | 43.41049 | -81.00994 | 35018 ft | 529 kts | 59° |
| 2026-05-01 13:10 | 43.44565 | -80.92087 | 35013 ft | 529 kts | 59° |
| 2026-05-01 13:11 | 43.48072 | -80.83174 | 35011 ft | 528 kts | 59° |
| 2026-05-01 13:11 | 43.51551 | -80.74307 | 35005 ft | 528 kts | 59° |
| 2026-05-01 13:12 | 43.55047 | -80.65365 | 34997 ft | 528 kts | 59° |
| 2026-05-01 13:12 | 43.58507 | -80.56492 | 34992 ft | 528 kts | 59° |
| 2026-05-01 13:13 | 43.61988 | -80.47532 | 34990 ft | 527 kts | 59° |
| 2026-05-01 13:13 | 43.65429 | -80.38649 | 34995 ft | 527 kts | 59° |
| 2026-05-01 13:14 | 43.68883 | -80.29705 | 34996 ft | 527 kts | 60° |
| 2026-05-01 13:14 | 43.72338 | -80.20727 | 34999 ft | 527 kts | 60° |
| 2026-05-01 13:15 | 43.75758 | -80.11812 | 34999 ft | 527 kts | 60° |
| 2026-05-01 13:15 | 43.78620 | -80.04333 | 35005 ft | 527 kts | 60° |
| 2026-05-01 13:16 | 43.82072 | -79.95347 | 35001 ft | 527 kts | 60° |
| 2026-05-01 13:16 | 43.85529 | -79.86454 | 35000 ft | 526 kts | 59° |
| 2026-05-01 13:17 | 43.92445 | -79.68579 | 35000 ft | 526 kts | 60° |
| 2026-05-01 13:18 | 43.97612 | -79.55113 | 35003 ft | 526 kts | 60° |
| 2026-05-01 13:18 | 44.01032 | -79.46165 | 35006 ft | 526 kts | 60° |
| 2026-05-01 13:19 | 44.04470 | -79.37143 | 35006 ft | 526 kts | 60° |
| 2026-05-01 13:20 | 44.09578 | -79.23683 | 35003 ft | 526 kts | 60° |
| 2026-05-01 13:20 | 44.12985 | -79.14669 | 35006 ft | 525 kts | 60° |
| 2026-05-01 13:21 | 44.18054 | -79.01203 | 35003 ft | 525 kts | 61° |
| 2026-05-01 13:21 | 44.21445 | -78.92159 | 35010 ft | 524 kts | 61° |
| 2026-05-01 13:22 | 44.24801 | -78.83179 | 35004 ft | 524 kts | 61° |
| 2026-05-01 13:22 | 44.28147 | -78.74196 | 35001 ft | 524 kts | 61° |
| 2026-05-01 13:23 | 44.31509 | -78.65143 | 34999 ft | 524 kts | 61° |
| 2026-05-01 13:23 | 44.34838 | -78.56147 | 34992 ft | 523 kts | 61° |
| 2026-05-01 13:24 | 44.38181 | -78.47083 | 34995 ft | 523 kts | 61° |
| 2026-05-01 13:25 | 44.43172 | -78.33497 | 35003 ft | 523 kts | 62° |
| 2026-05-01 13:25 | 44.46468 | -78.24488 | 34985 ft | 523 kts | 62° |
| 2026-05-01 13:26 | 44.49787 | -78.15387 | 34993 ft | 522 kts | 62° |
| 2026-05-01 13:26 | 44.53044 | -78.06425 | 35014 ft | 522 kts | 62° |
| 2026-05-01 13:27 | 44.56318 | -77.97387 | 34997 ft | 521 kts | 62° |
| 2026-05-01 13:27 | 44.61218 | -77.83804 | 35002 ft | 521 kts | 62° |
| 2026-05-01 13:28 | 44.66280 | -77.70288 | 35019 ft | 520 kts | 59° |
| 2026-05-01 13:29 | 44.73633 | -77.52826 | 35002 ft | 519 kts | 58° |
| 2026-05-01 13:31 | 44.84512 | -77.26555 | 35006 ft | 518 kts | 59° |
| 2026-05-01 13:32 | 44.93527 | -77.04542 | 35002 ft | 517 kts | 59° |
| 2026-05-01 13:33 | 45.02453 | -76.82584 | 35001 ft | 516 kts | 60° |
| 2026-05-01 13:34 | 45.09560 | -76.64974 | 35000 ft | 515 kts | 60° |
| 2026-05-01 13:35 | 45.14884 | -76.51709 | 35009 ft | 515 kts | 60° |
| 2026-05-01 13:36 | 45.20166 | -76.38489 | 35012 ft | 515 kts | 60° |
| 2026-05-01 13:36 | 45.25428 | -76.25254 | 35000 ft | 514 kts | 60° |
| 2026-05-01 13:37 | 45.28938 | -76.16391 | 35004 ft | 514 kts | 61° |
| 2026-05-01 13:37 | 45.32444 | -76.07510 | 34989 ft | 514 kts | 61° |
| 2026-05-01 13:38 | 45.37664 | -75.94233 | 34999 ft | 513 kts | 61° |
| 2026-05-01 13:39 | 45.41141 | -75.85352 | 34992 ft | 512 kts | 61° |
| 2026-05-01 13:39 | 45.44586 | -75.76528 | 34994 ft | 512 kts | 62° |
| 2026-05-01 13:40 | 45.48043 | -75.67646 | 34981 ft | 512 kts | 62° |
| 2026-05-01 13:40 | 45.51472 | -75.58803 | 34984 ft | 511 kts | 62° |
| 2026-05-01 13:41 | 45.54914 | -75.49899 | 34981 ft | 511 kts | 62° |
| 2026-05-01 13:41 | 45.58344 | -75.41001 | 34983 ft | 511 kts | 62° |
| 2026-05-01 13:42 | 45.61742 | -75.32155 | 34984 ft | 511 kts | 62° |
| 2026-05-01 13:42 | 45.65169 | -75.23203 | 34983 ft | 511 kts | 62° |
| 2026-05-01 13:43 | 45.68553 | -75.14336 | 34983 ft | 511 kts | 62° |
| 2026-05-01 13:43 | 45.71951 | -75.05402 | 34975 ft | 510 kts | 63° |
| 2026-05-01 13:44 | 45.75347 | -74.96446 | 34971 ft | 510 kts | 63° |
| 2026-05-01 13:44 | 45.78705 | -74.87560 | 34969 ft | 509 kts | 63° |
| 2026-05-01 13:45 | 45.82078 | -74.78607 | 34963 ft | 509 kts | 63° |
| 2026-05-01 13:45 | 45.85419 | -74.69708 | 34970 ft | 508 kts | 63° |
| 2026-05-01 13:46 | 45.88766 | -74.60765 | 34962 ft | 507 kts | 63° |
| 2026-05-01 13:46 | 45.92098 | -74.51832 | 34970 ft | 506 kts | 63° |
| 2026-05-01 13:47 | 45.95401 | -74.42947 | 34966 ft | 506 kts | 64° |
| 2026-05-01 13:47 | 45.98701 | -74.34041 | 34968 ft | 505 kts | 64° |
| 2026-05-01 13:48 | 46.02007 | -74.25089 | 34962 ft | 505 kts | 64° |
| 2026-05-01 13:48 | 46.05304 | -74.16132 | 34960 ft | 505 kts | 64° |
| 2026-05-01 13:49 | 46.08576 | -74.07215 | 34953 ft | 505 kts | 64° |
| 2026-05-01 13:49 | 46.11856 | -73.98246 | 34956 ft | 505 kts | 64° |
| 2026-05-01 13:50 | 46.15107 | -73.89323 | 34949 ft | 505 kts | 64° |
| 2026-05-01 13:50 | 46.18380 | -73.80315 | 34950 ft | 505 kts | 65° |
| 2026-05-01 13:51 | 46.21617 | -73.71375 | 34945 ft | 505 kts | 65° |
| 2026-05-01 13:51 | 46.24871 | -73.62355 | 34945 ft | 504 kts | 65° |
| 2026-05-01 13:52 | 46.28086 | -73.53413 | 34937 ft | 504 kts | 65° |
| 2026-05-01 13:52 | 46.31313 | -73.44410 | 34937 ft | 503 kts | 65° |
| 2026-05-01 13:53 | 46.34517 | -73.35446 | 34941 ft | 503 kts | 65° |
| 2026-05-01 13:53 | 46.40071 | -73.22498 | 34939 ft | 504 kts | 59° |
| 2026-05-01 13:54 | 46.43912 | -73.14039 | 34932 ft | 504 kts | 59° |
| 2026-05-01 13:54 | 46.47743 | -73.05499 | 34929 ft | 504 kts | 60° |
| 2026-05-01 13:55 | 46.51524 | -72.96979 | 34935 ft | 504 kts | 60° |
| 2026-05-01 13:55 | 46.55319 | -72.88386 | 34930 ft | 504 kts | 60° |
| 2026-05-01 13:56 | 46.59107 | -72.79787 | 34920 ft | 504 kts | 60° |
| 2026-05-01 13:56 | 46.62862 | -72.71241 | 34918 ft | 503 kts | 60° |
| 2026-05-01 13:57 | 46.65993 | -72.64098 | 34919 ft | 503 kts | 61° |
| 2026-05-01 13:57 | 46.70372 | -72.54073 | 34912 ft | 503 kts | 61° |
| 2026-05-01 13:58 | 46.74126 | -72.45450 | 34908 ft | 502 kts | 61° |
| 2026-05-01 13:58 | 46.77867 | -72.36830 | 34906 ft | 502 kts | 61° |
| 2026-05-01 13:59 | 46.81577 | -72.28256 | 34901 ft | 501 kts | 62° |
| 2026-05-01 13:59 | 46.85278 | -72.19673 | 34902 ft | 501 kts | 62° |
| 2026-05-01 14:00 | 46.89001 | -72.11013 | 34887 ft | 501 kts | 62° |
| 2026-05-01 14:00 | 46.92711 | -72.02358 | 34895 ft | 501 kts | 62° |
| 2026-05-01 14:01 | 46.96398 | -71.93726 | 34894 ft | 501 kts | 62° |
| 2026-05-01 14:01 | 47.00067 | -71.85115 | 34876 ft | 501 kts | 62° |
| 2026-05-01 14:02 | 47.03939 | -71.76595 | 34866 ft | 502 kts | 59° |
| 2026-05-01 14:02 | 47.07941 | -71.68224 | 34855 ft | 502 kts | 59° |
| 2026-05-01 14:03 | 47.11275 | -71.61202 | 34843 ft | 502 kts | 59° |
| 2026-05-01 14:03 | 47.15884 | -71.51349 | 34828 ft | 502 kts | 60° |
| 2026-05-01 14:04 | 47.19161 | -71.44283 | 34826 ft | 502 kts | 60° |
| 2026-05-01 14:04 | 47.23093 | -71.35777 | 34816 ft | 502 kts | 60° |
| 2026-05-01 14:05 | 47.27019 | -71.27264 | 34813 ft | 502 kts | 60° |
| 2026-05-01 14:05 | 47.30919 | -71.18787 | 34810 ft | 502 kts | 60° |
| 2026-05-01 14:06 | 47.34843 | -71.10229 | 34800 ft | 502 kts | 60° |
| 2026-05-01 14:06 | 47.38737 | -71.01711 | 34795 ft | 502 kts | 60° |
| 2026-05-01 14:07 | 47.42639 | -70.93149 | 34789 ft | 502 kts | 60° |
| 2026-05-01 14:08 | 47.48477 | -70.80290 | 34795 ft | 501 kts | 61° |
| 2026-05-01 14:08 | 47.52332 | -70.71765 | 34796 ft | 501 kts | 61° |
| 2026-05-01 14:09 | 47.56202 | -70.63180 | 34824 ft | 500 kts | 61° |
| 2026-05-01 14:09 | 47.60057 | -70.54603 | 34830 ft | 500 kts | 61° |
| 2026-05-01 14:10 | 47.63883 | -70.46060 | 34820 ft | 500 kts | 62° |
| 2026-05-01 14:10 | 47.67735 | -70.37435 | 34827 ft | 499 kts | 62° |
| 2026-05-01 14:11 | 47.71547 | -70.28872 | 34832 ft | 499 kts | 62° |
| 2026-05-01 14:11 | 47.77265 | -70.15975 | 34827 ft | 499 kts | 62° |
| 2026-05-01 14:12 | 47.81080 | -70.07338 | 34830 ft | 499 kts | 62° |
| 2026-05-01 14:12 | 47.84894 | -69.98674 | 34819 ft | 499 kts | 62° |
| 2026-05-01 14:13 | 47.88671 | -69.90070 | 34820 ft | 498 kts | 62° |
| 2026-05-01 14:13 | 47.92452 | -69.81430 | 34812 ft | 497 kts | 62° |
| 2026-05-01 14:14 | 47.96232 | -69.72760 | 34815 ft | 497 kts | 63° |
| 2026-05-01 14:14 | 47.99972 | -69.64154 | 34816 ft | 496 kts | 63° |
| 2026-05-01 14:15 | 48.03729 | -69.55486 | 34814 ft | 496 kts | 63° |
| 2026-05-01 14:15 | 48.07458 | -69.46850 | 34815 ft | 497 kts | 63° |
| 2026-05-01 14:16 | 48.11208 | -69.38142 | 34813 ft | 496 kts | 63° |
| 2026-05-01 14:16 | 48.15073 | -69.29605 | 34805 ft | 500 kts | 57° |
| 2026-05-01 14:17 | 48.19836 | -69.21864 | 34813 ft | 505 kts | 50° |
| 2026-05-01 14:17 | 48.24776 | -69.14421 | 34808 ft | 505 kts | 50° |
| 2026-05-01 14:18 | 48.29728 | -69.06905 | 34806 ft | 505 kts | 51° |
| 2026-05-01 14:18 | 48.33812 | -69.00625 | 34798 ft | 504 kts | 51° |
| 2026-05-01 14:19 | 48.39480 | -68.91841 | 34804 ft | 504 kts | 51° |
| 2026-05-01 14:19 | 48.44361 | -68.84247 | 34803 ft | 504 kts | 51° |
| 2026-05-01 14:20 | 48.51689 | -68.72811 | 34812 ft | 504 kts | 51° |
| 2026-05-01 14:21 | 48.56540 | -68.65215 | 34811 ft | 504 kts | 51° |
| 2026-05-01 14:21 | 48.61420 | -68.57551 | 34800 ft | 505 kts | 52° |
| 2026-05-01 14:22 | 48.68688 | -68.46097 | 34804 ft | 505 kts | 52° |
| 2026-05-01 14:22 | 48.73526 | -68.38442 | 34801 ft | 504 kts | 52° |
| 2026-05-01 14:23 | 48.78389 | -68.30726 | 34800 ft | 504 kts | 52° |
| 2026-05-01 14:23 | 48.83237 | -68.23010 | 34806 ft | 504 kts | 52° |
| 2026-05-01 14:24 | 48.88051 | -68.15325 | 34810 ft | 504 kts | 52° |
| 2026-05-01 14:24 | 48.92896 | -68.07568 | 34817 ft | 505 kts | 52° |
| 2026-05-01 14:25 | 48.97712 | -67.99832 | 34814 ft | 505 kts | 52° |
| 2026-05-01 14:25 | 49.02542 | -67.92052 | 34809 ft | 505 kts | 52° |
| 2026-05-01 14:26 | 49.09757 | -67.80386 | 34813 ft | 505 kts | 52° |
| 2026-05-01 14:27 | 49.14585 | -67.72551 | 34826 ft | 506 kts | 53° |
| 2026-05-01 14:27 | 49.19411 | -67.64693 | 34831 ft | 506 kts | 53° |
| 2026-05-01 14:28 | 49.26617 | -67.52917 | 34835 ft | 507 kts | 53° |
| 2026-05-01 14:28 | 49.31432 | -67.45018 | 34834 ft | 506 kts | 53° |
| 2026-05-01 14:29 | 49.36195 | -67.37181 | 34836 ft | 505 kts | 53° |
| 2026-05-01 14:30 | 49.45789 | -67.21320 | 34839 ft | 506 kts | 53° |
| 2026-05-01 14:31 | 49.52929 | -67.09454 | 34849 ft | 505 kts | 53° |
| 2026-05-01 14:31 | 49.57704 | -67.01487 | 34854 ft | 505 kts | 53° |
| 2026-05-01 14:32 | 49.62466 | -66.93517 | 34859 ft | 505 kts | 53° |
| 2026-05-01 14:32 | 49.67199 | -66.85570 | 34864 ft | 505 kts | 54° |
| 2026-05-01 14:33 | 49.71957 | -66.77556 | 34869 ft | 506 kts | 54° |
| 2026-05-01 14:33 | 49.76718 | -66.69512 | 34878 ft | 507 kts | 54° |
| 2026-05-01 14:34 | 49.81487 | -66.61430 | 34881 ft | 508 kts | 54° |
| 2026-05-01 14:34 | 49.86234 | -66.53359 | 34889 ft | 510 kts | 54° |
| 2026-05-01 14:35 | 49.91025 | -66.45188 | 34905 ft | 511 kts | 54° |
| 2026-05-01 14:35 | 49.95811 | -66.36999 | 34917 ft | 512 kts | 54° |
| 2026-05-01 14:36 | 50.00570 | -66.28831 | 34923 ft | 514 kts | 54° |
| 2026-05-01 14:36 | 50.05377 | -66.20554 | 34925 ft | 514 kts | 54° |
| 2026-05-01 14:37 | 50.10153 | -66.12305 | 34932 ft | 515 kts | 54° |
| 2026-05-01 14:37 | 50.14962 | -66.03971 | 34936 ft | 516 kts | 54° |
| 2026-05-01 14:38 | 50.19739 | -65.95665 | 34926 ft | 516 kts | 53° |
| 2026-05-01 14:38 | 50.24539 | -65.87296 | 34940 ft | 516 kts | 53° |
| 2026-05-01 14:39 | 50.29329 | -65.78914 | 34951 ft | 516 kts | 53° |
| 2026-05-01 14:39 | 50.34113 | -65.70512 | 34968 ft | 517 kts | 53° |
| 2026-05-01 14:40 | 50.38879 | -65.62118 | 34958 ft | 518 kts | 53° |
| 2026-05-01 14:40 | 50.43665 | -65.53658 | 34962 ft | 518 kts | 53° |
| 2026-05-01 14:41 | 50.48447 | -65.45178 | 34962 ft | 518 kts | 53° |
| 2026-05-01 14:41 | 50.53220 | -65.36691 | 34954 ft | 517 kts | 53° |
| 2026-05-01 14:42 | 50.57969 | -65.28214 | 34989 ft | 516 kts | 53° |
| 2026-05-01 14:42 | 50.62677 | -65.19781 | 34998 ft | 515 kts | 53° |
| 2026-05-01 14:43 | 50.67413 | -65.11273 | 35002 ft | 515 kts | 53° |
| 2026-05-01 14:43 | 50.72129 | -65.02770 | 35016 ft | 515 kts | 53° |
| 2026-05-01 14:44 | 50.76843 | -64.94241 | 35034 ft | 515 kts | 52° |
| 2026-05-01 14:44 | 50.83871 | -64.81478 | 35044 ft | 515 kts | 52° |
| 2026-05-01 14:45 | 50.90889 | -64.68667 | 35059 ft | 514 kts | 52° |
| 2026-05-01 14:46 | 50.95576 | -64.60074 | 35062 ft | 514 kts | 52° |
| 2026-05-01 14:46 | 51.02592 | -64.47161 | 35069 ft | 514 kts | 52° |
| 2026-05-01 14:47 | 51.07225 | -64.38596 | 35072 ft | 513 kts | 52° |
| 2026-05-01 14:48 | 51.14176 | -64.25694 | 35076 ft | 511 kts | 52° |
| 2026-05-01 14:48 | 51.21085 | -64.12805 | 35099 ft | 508 kts | 52° |
| 2026-05-01 14:49 | 51.30216 | -63.95668 | 35096 ft | 502 kts | 52° |
| 2026-05-01 14:50 | 51.39187 | -63.78719 | 35091 ft | 497 kts | 52° |
| 2026-05-01 14:51 | 51.45837 | -63.66082 | 35099 ft | 494 kts | 52° |
| 2026-05-01 14:52 | 51.52452 | -63.53447 | 35097 ft | 493 kts | 52° |
| 2026-05-01 14:53 | 51.58330 | -63.42168 | 35104 ft | 494 kts | 52° |
| 2026-05-01 14:53 | 51.63461 | -63.32282 | 35109 ft | 494 kts | 52° |
| 2026-05-01 14:54 | 51.67158 | -63.25135 | 35111 ft | 495 kts | 52° |
| 2026-05-01 14:54 | 51.71540 | -63.16638 | 35114 ft | 496 kts | 52° |
| 2026-05-01 14:55 | 51.75955 | -63.08048 | 35111 ft | 497 kts | 52° |
| 2026-05-01 14:55 | 51.80370 | -62.99430 | 35118 ft | 498 kts | 52° |
| 2026-05-01 14:56 | 51.84789 | -62.90775 | 35118 ft | 498 kts | 52° |
| 2026-05-01 14:56 | 51.89174 | -62.82155 | 35120 ft | 498 kts | 52° |
| 2026-05-01 14:57 | 51.93579 | -62.73470 | 35126 ft | 498 kts | 52° |
| 2026-05-01 14:57 | 52.00168 | -62.60419 | 35128 ft | 498 kts | 53° |
| 2026-05-01 14:58 | 52.04549 | -62.51706 | 35133 ft | 498 kts | 53° |
| 2026-05-01 14:58 | 52.08927 | -62.42968 | 35142 ft | 497 kts | 53° |
| 2026-05-01 14:59 | 52.13261 | -62.34289 | 35140 ft | 497 kts | 53° |
| 2026-05-01 14:59 | 52.17612 | -62.25544 | 35142 ft | 496 kts | 53° |
| 2026-05-01 15:00 | 52.24120 | -62.12408 | 35146 ft | 495 kts | 53° |
| 2026-05-01 15:01 | 52.28422 | -62.03689 | 35155 ft | 495 kts | 53° |
| 2026-05-01 15:01 | 52.32744 | -61.94897 | 35151 ft | 495 kts | 53° |
| 2026-05-01 15:02 | 52.37029 | -61.86151 | 35156 ft | 495 kts | 53° |
| 2026-05-01 15:02 | 52.41323 | -61.77358 | 35155 ft | 495 kts | 54° |
| 2026-05-01 15:03 | 52.45626 | -61.68513 | 35159 ft | 495 kts | 54° |
| 2026-05-01 15:03 | 52.49931 | -61.59633 | 35165 ft | 495 kts | 54° |
| 2026-05-01 15:04 | 52.54202 | -61.50794 | 35166 ft | 496 kts | 54° |
| 2026-05-01 15:04 | 52.58482 | -61.41905 | 35170 ft | 496 kts | 54° |
| 2026-05-01 15:05 | 52.62769 | -61.32970 | 35174 ft | 496 kts | 54° |
| 2026-05-01 15:05 | 52.67025 | -61.24069 | 35174 ft | 497 kts | 54° |
| 2026-05-01 15:06 | 52.71303 | -61.15089 | 35176 ft | 497 kts | 54° |
| 2026-05-01 15:06 | 52.75548 | -61.06147 | 35187 ft | 497 kts | 54° |
| 2026-05-01 15:07 | 52.79817 | -60.97122 | 35181 ft | 497 kts | 54° |
| 2026-05-01 15:07 | 52.84067 | -60.88107 | 35186 ft | 497 kts | 54° |
| 2026-05-01 15:08 | 52.88309 | -60.79075 | 35193 ft | 496 kts | 54° |
| 2026-05-01 15:08 | 52.92520 | -60.70077 | 35189 ft | 496 kts | 53° |
| 2026-05-01 15:09 | 52.96744 | -60.61021 | 35191 ft | 496 kts | 53° |
| 2026-05-01 15:09 | 53.00967 | -60.51932 | 35188 ft | 496 kts | 53° |
| 2026-05-01 15:10 | 53.05154 | -60.42889 | 35196 ft | 496 kts | 53° |
| 2026-05-01 15:10 | 53.11457 | -60.29216 | 35197 ft | 496 kts | 53° |
| 2026-05-01 15:11 | 53.17722 | -60.15550 | 35198 ft | 496 kts | 53° |
| 2026-05-01 15:12 | 53.21904 | -60.06385 | 35197 ft | 496 kts | 53° |
| 2026-05-01 15:12 | 53.28133 | -59.92675 | 35191 ft | 496 kts | 53° |
| 2026-05-01 15:14 | 53.38547 | -59.69585 | 35196 ft | 496 kts | 53° |
| 2026-05-01 15:14 | 53.44753 | -59.55726 | 35200 ft | 496 kts | 54° |
| 2026-05-01 15:15 | 53.53010 | -59.37162 | 35206 ft | 497 kts | 54° |
| 2026-05-01 15:16 | 53.61242 | -59.18523 | 35204 ft | 496 kts | 54° |
| 2026-05-01 15:18 | 53.71490 | -58.95117 | 35200 ft | 496 kts | 55° |
| 2026-05-01 15:19 | 53.79658 | -58.76309 | 35210 ft | 496 kts | 55° |
| 2026-05-01 15:19 | 53.85742 | -58.62203 | 35210 ft | 496 kts | 56° |
| 2026-05-01 15:20 | 53.91850 | -58.47966 | 35206 ft | 497 kts | 56° |
| 2026-05-01 15:21 | 53.95883 | -58.38518 | 35207 ft | 497 kts | 56° |
| 2026-05-01 15:21 | 53.99939 | -58.28982 | 35206 ft | 497 kts | 56° |
| 2026-05-01 15:22 | 54.05991 | -58.14687 | 35208 ft | 497 kts | 57° |
| 2026-05-01 15:22 | 54.10037 | -58.05082 | 35209 ft | 498 kts | 57° |
| 2026-05-01 15:23 | 54.14045 | -57.95532 | 35213 ft | 498 kts | 57° |
| 2026-05-01 15:23 | 54.18074 | -57.85893 | 35213 ft | 498 kts | 57° |
| 2026-05-01 15:24 | 54.22096 | -57.76239 | 35226 ft | 498 kts | 57° |
| 2026-05-01 15:24 | 54.26086 | -57.66617 | 35217 ft | 498 kts | 58° |
| 2026-05-01 15:25 | 54.30096 | -57.56914 | 35221 ft | 498 kts | 58° |
| 2026-05-01 15:25 | 54.34074 | -57.47250 | 35243 ft | 498 kts | 58° |
| 2026-05-01 15:26 | 54.38061 | -57.37527 | 35245 ft | 498 kts | 58° |
| 2026-05-01 15:26 | 54.42018 | -57.27838 | 35226 ft | 498 kts | 58° |
| 2026-05-01 15:27 | 54.45991 | -57.18071 | 35249 ft | 497 kts | 59° |
| 2026-05-01 15:28 | 54.51908 | -57.03460 | 35247 ft | 497 kts | 59° |
| 2026-05-01 15:28 | 54.55556 | -56.93371 | 35258 ft | 493 kts | 64° |
| 2026-05-01 15:29 | 54.60502 | -56.77867 | 35255 ft | 493 kts | 65° |
| 2026-05-01 15:30 | 54.67110 | -56.57117 | 35257 ft | 494 kts | 65° |
| 2026-05-01 15:31 | 54.77030 | -56.25861 | 35267 ft | 494 kts | 65° |
| 2026-05-01 15:32 | 54.83585 | -56.04969 | 35273 ft | 494 kts | 65° |
| 2026-05-01 15:34 | 54.93343 | -55.73530 | 35279 ft | 493 kts | 65° |